Time;durP1;ratioP1;P1;durP2;ratioP2;P2;SDS_P1;SDS_P2;PMS_P1;PMS_P2;Temp;Humidity;BMP_temperature;BMP_pressure;BME280_temperature;BME280_humidity;BME280_pressure;Samples;Min_cycle;Max_cycle;Signal;HPM_P1;HPM_P2
2021/12/30 00:03:43;;;;;;;12.52;7.15;;;;;;;3.12;100.00;94153.59;10366592;28;20064;-75
2021/12/30 00:08:45;;;;;;;12.43;6.35;;;;;;;3.17;100.00;94144.91;10355481;28;20500;-74
2021/12/30 00:13:46;;;;;;;11.43;5.82;;;;;;;3.14;100.00;94150.69;10371607;28;20022;-74
2021/12/30 00:18:47;;;;;;;9.85;6.20;;;;;;;2.98;100.00;94149.66;10371183;28;20058;-72
2021/12/30 00:23:47;;;;;;;9.80;6.25;;;;;;;3.05;100.00;94150.28;10354596;28;20462;-72
2021/12/30 00:28:48;;;;;;;9.00;4.70;;;;;;;3.13;100.00;94155.19;10354542;28;20029;-74
2021/12/30 00:33:49;;;;;;;6.53;4.15;;;;;;;3.19;100.00;94169.38;10371578;28;20030;-71
2021/12/30 00:38:49;;;;;;;7.90;4.70;;;;;;;3.13;100.00;94168.47;10371097;28;20030;-74
2021/12/30 00:43:49;;;;;;;8.90;5.18;;;;;;;3.19;100.00;94167.50;10369762;28;20032;-71
2021/12/30 00:48:50;;;;;;;5.00;3.63;;;;;;;3.37;100.00;94165.66;10371065;28;20038;-70
2021/12/30 00:53:50;;;;;;;6.07;3.92;;;;;;;3.32;100.00;94162.94;10370532;28;20029;-75
2021/12/30 00:58:52;;;;;;;7.55;4.10;;;;;;;3.31;100.00;94161.31;10354220;28;20494;-74
2021/12/30 01:03:52;;;;;;;4.00;3.20;;;;;;;3.30;100.00;94165.81;10370901;28;20126;-73
2021/12/30 01:08:53;;;;;;;5.28;3.42;;;;;;;3.30;100.00;94162.38;10370939;28;20116;-74
2021/12/30 01:13:58;;;;;;;6.53;3.95;;;;;;;3.40;100.00;94171.31;10367350;28;20455;-70
2021/12/30 01:24:18;;;;;;;5.65;3.60;;;;;;;3.59;100.00;94187.78;10365311;28;20459;-73
2021/12/30 01:29:19;;;;;;;6.60;3.47;;;;;;;3.70;100.00;94180.00;10363218;28;20503;-76
2021/12/30 01:34:19;;;;;;;5.15;3.10;;;;;;;3.42;100.00;94189.66;10347104;28;20029;-70
2021/12/30 01:39:22;;;;;;;4.22;3.00;;;;;;;3.36;100.00;94180.81;10362365;28;20534;-72
2021/12/30 01:44:22;;;;;;;6.03;2.92;;;;;;;3.61;100.00;94184.09;10362551;28;20030;-75
2021/12/30 01:49:24;;;;;;;5.35;3.78;;;;;;;3.83;100.00;94171.66;10362753;28;20034;-71
2021/12/30 01:54:26;;;;;;;3.92;3.08;;;;;;;3.78;100.00;94178.75;10346131;28;20496;-75
2021/12/30 01:59:27;;;;;;;5.28;3.00;;;;;;;3.80;100.00;94179.34;10362150;28;20038;-75
2021/12/30 02:04:29;;;;;;;7.82;3.63;;;;;;;3.90;100.00;94190.09;10346376;28;20399;-77
2021/12/30 02:09:30;;;;;;;9.30;2.53;;;;;;;4.04;100.00;94179.91;10361938;28;20030;-70
2021/12/30 02:14:34;;;;;;;4.95;2.45;;;;;;;4.08;100.00;94186.34;10345694;28;20030;-76
2021/12/30 02:19:35;;;;;;;3.92;2.67;;;;;;;4.14;100.00;94189.88;10361147;28;20053;-72
2021/12/30 02:24:44;;;;;;;7.38;3.13;;;;;;;4.09;100.00;94191.41;10362331;28;20021;-69
2021/12/30 02:29:45;;;;;;;4.60;2.85;;;;;;;4.15;100.00;94175.53;10344713;28;20444;-74
2021/12/30 02:34:45;;;;;;;4.35;3.13;;;;;;;4.11;100.00;94183.19;10362209;28;20034;-73
2021/12/30 02:39:52;;;;;;;3.67;2.55;;;;;;;3.86;100.00;94199.59;10360893;28;20103;-70
2021/12/30 02:44:53;;;;;;;5.35;2.45;;;;;;;3.86;100.00;94212.91;10360974;28;20035;-71
2021/12/30 02:49:53;;;;;;;4.55;3.30;;;;;;;4.01;100.00;94207.00;10361725;28;20041;-69
2021/12/30 02:54:54;;;;;;;5.93;3.83;;;;;;;4.11;100.00;94215.91;10361792;28;20037;-70
2021/12/30 02:59:55;;;;;;;4.38;2.90;;;;;;;4.05;100.00;94224.06;10343894;28;20127;-69
2021/12/30 03:04:55;;;;;;;5.43;3.15;;;;;;;4.10;100.00;94232.09;10359422;28;20032;-70
2021/12/30 03:09:55;;;;;;;4.90;2.90;;;;;;;4.25;100.00;94221.66;10361403;28;20068;-71
2021/12/30 03:14:58;;;;;;;4.95;2.65;;;;;;;4.28;100.00;94229.19;10342980;28;20484;-72
2021/12/30 03:19:58;;;;;;;4.13;2.97;;;;;;;4.26;100.00;94233.94;10367832;28;20461;-72
2021/12/30 03:24:59;;;;;;;5.05;3.10;;;;;;;4.27;100.00;94243.53;10384081;28;20044;-71
2021/12/30 03:30:01;;;;;;;5.97;3.00;;;;;;;4.31;100.00;94248.34;10401111;28;20107;-70
2021/12/30 03:35:03;;;;;;;5.03;3.38;;;;;;;4.24;100.00;94259.97;10382804;28;20029;-75
2021/12/30 03:40:07;;;;;;;4.47;3.00;;;;;;;4.26;100.00;94255.22;10366326;28;20029;-75
2021/12/30 03:45:10;;;;;;;5.50;3.30;;;;;;;4.32;100.00;94252.63;10400507;28;20060;-68
2021/12/30 03:50:18;;;;;;;5.57;3.38;;;;;;;4.33;100.00;94252.38;10350391;28;20026;-72
2021/12/30 03:55:20;;;;;;;11.00;3.38;;;;;;;4.47;100.00;94260.81;10382749;28;20025;-71
2021/12/30 04:00:23;;;;;;;10.05;3.55;;;;;;;4.39;100.00;94267.34;10366763;28;20095;-73
2021/12/30 04:05:24;;;;;;;5.80;3.80;;;;;;;4.52;100.00;94281.34;10351837;28;20018;-73
2021/12/30 04:10:25;;;;;;;6.28;4.22;;;;;;;4.38;100.00;94288.88;10358195;28;20030;-72
2021/12/30 04:15:25;;;;;;;5.35;3.72;;;;;;;4.48;100.00;94294.34;10357601;28;20514;-75
2021/12/30 04:20:26;;;;;;;6.50;3.75;;;;;;;4.47;100.00;94300.72;10341513;28;20046;-71
2021/12/30 04:25:27;;;;;;;6.90;4.05;;;;;;;4.46;100.00;94312.41;10357691;28;20560;-71
2021/12/30 04:30:27;;;;;;;4.30;3.58;;;;;;;4.42;100.00;94319.25;10341539;28;20034;-71
2021/12/30 04:35:28;;;;;;;4.75;3.85;;;;;;;4.35;100.00;94332.72;10356648;28;20317;-71
2021/12/30 04:40:28;;;;;;;5.63;4.18;;;;;;;4.30;100.00;94340.66;10357454;28;20124;-72
2021/12/30 04:45:29;;;;;;;6.10;3.55;;;;;;;4.36;100.00;94347.66;10354318;28;20529;-70
2021/12/30 04:50:30;;;;;;;9.98;4.60;;;;;;;4.42;100.00;94343.22;10381935;28;20025;-70
2021/12/30 04:55:30;;;;;;;5.70;4.15;;;;;;;4.31;100.00;94352.09;10404606;28;20029;-74
2021/12/30 05:00:32;;;;;;;7.40;5.10;;;;;;;4.18;100.00;94366.53;10389304;28;20024;-73
2021/12/30 05:05:43;;;;;;;5.97;4.85;;;;;;;4.14;100.00;94368.84;10346793;28;20022;-78
2021/12/30 05:10:44;;;;;;;7.45;4.15;;;;;;;4.07;100.00;94370.88;10375751;28;20396;-72
2021/12/30 05:15:47;;;;;;;5.15;3.50;;;;;;;4.07;100.00;94381.50;10362501;28;20033;-75
2021/12/30 05:20:47;;;;;;;5.32;3.20;;;;;;;4.09;100.00;94382.88;10346935;28;20060;-76
2021/12/30 05:25:47;;;;;;;5.05;3.53;;;;;;;4.07;100.00;94400.91;10387110;28;20022;-76
2021/12/30 05:30:48;;;;;;;6.72;2.70;;;;;;;4.07;100.00;94400.91;10345684;28;20033;-73
2021/12/30 05:35:49;;;;;;;4.15;2.40;;;;;;;4.07;100.00;94414.22;10363335;28;20042;-76
2021/12/30 05:40:49;;;;;;;3.80;2.35;;;;;;;4.10;100.00;94423.56;10363015;28;20025;-72
2021/12/30 05:45:50;;;;;;;6.32;2.20;;;;;;;4.07;100.00;94432.03;10338652;28;20084;-80
2021/12/30 05:50:50;;;;;;;5.15;2.20;;;;;;;4.03;100.00;94439.69;10362202;28;20411;-76
2021/12/30 05:55:51;;;;;;;6.38;2.50;;;;;;;3.97;100.00;94439.84;10362809;28;20022;-74
2021/12/30 06:00:51;;;;;;;3.17;2.03;;;;;;;3.94;100.00;94446.44;10362521;28;20407;-72
2021/12/30 06:05:52;;;;;;;6.22;2.03;;;;;;;3.88;100.00;94452.69;10362285;28;20022;-76
2021/12/30 06:10:52;;;;;;;2.17;1.52;;;;;;;3.91;100.00;94458.34;10372449;28;20099;-75
2021/12/30 06:15:53;;;;;;;3.10;1.67;;;;;;;3.94;100.00;94462.41;10362790;28;20030;-73
2021/12/30 06:20:53;;;;;;;3.85;2.28;;;;;;;3.98;100.00;94479.50;10345525;28;20046;-77
2021/12/30 06:25:55;;;;;;;3.35;1.20;;;;;;;3.91;100.00;94495.56;10362544;28;20417;-77
2021/12/30 06:30:55;;;;;;;1.90;1.33;;;;;;;3.95;100.00;94506.56;10361990;28;20066;-73
2021/12/30 06:35:56;;;;;;;1.85;1.30;;;;;;;4.04;100.00;94514.97;10362668;28;20567;-75
2021/12/30 06:40:56;;;;;;;2.92;1.50;;;;;;;3.91;100.00;94518.72;10344923;28;20069;-72
2021/12/30 06:45:57;;;;;;;3.35;2.15;;;;;;;3.86;100.00;94531.88;10361116;28;20026;-74
2021/12/30 06:51:00;;;;;;;2.90;1.80;;;;;;;3.87;100.00;94538.84;10345151;28;20661;-80
2021/12/30 06:56:00;;;;;;;2.85;1.58;;;;;;;3.89;100.00;94545.53;10344779;28;20034;-77
2021/12/30 07:01:02;;;;;;;6.43;2.35;;;;;;;3.88;100.00;94557.19;10360259;28;20022;-77
2021/12/30 07:06:02;;;;;;;4.43;2.22;;;;;;;3.99;100.00;94560.06;10360665;28;20118;-77
2021/12/30 07:11:03;;;;;;;1.80;1.17;;;;;;;3.94;100.00;94574.06;10344020;28;20026;-74
2021/12/30 07:16:04;;;;;;;2.60;1.70;;;;;;;4.03;100.00;94588.63;10359797;28;20107;-81
2021/12/30 07:21:04;;;;;;;3.38;1.48;;;;;;;4.00;100.00;94601.56;10361109;28;20054;-76
2021/12/30 07:26:05;;;;;;;3.00;2.05;;;;;;;3.97;100.00;94624.09;10359790;28;20034;-79
2021/12/30 07:31:05;;;;;;;5.00;2.30;;;;;;;3.91;100.00;94620.53;10360519;28;20507;-72
2021/12/30 07:36:06;;;;;;;3.95;1.55;;;;;;;3.97;100.00;94625.97;10342543;28;20030;-73
2021/12/30 07:41:06;;;;;;;2.58;1.65;;;;;;;4.00;100.00;94644.09;10342766;28;20476;-73
2021/12/30 07:46:09;;;;;;;2.60;1.70;;;;;;;3.94;100.00;94651.97;10358999;28;20127;-74
2021/12/30 07:51:10;;;;;;;3.78;1.20;;;;;;;3.94;100.00;94653.81;10360168;28;20120;-73
2021/12/30 07:56:10;;;;;;;4.05;1.90;;;;;;;3.91;100.00;94657.75;10343169;28;20042;-76
2021/12/30 08:01:11;;;;;;;3.28;1.80;;;;;;;4.07;100.00;94661.53;10382629;28;20103;-75
2021/12/30 08:06:11;;;;;;;4.05;1.92;;;;;;;3.86;100.00;94660.28;10400638;28;20041;-79
2021/12/30 08:11:12;;;;;;;4.10;2.15;;;;;;;3.77;100.00;94672.34;10383031;28;20040;-80
2021/12/30 08:16:13;;;;;;;3.88;2.03;;;;;;;3.88;100.00;94676.84;10382893;28;20103;-72
2021/12/30 08:21:14;;;;;;;2.47;1.70;;;;;;;3.89;100.00;94683.78;10382448;28;20054;-80
2021/12/30 08:26:14;;;;;;;6.28;2.20;;;;;;;3.98;100.00;94681.56;10390102;28;20033;-75
2021/12/30 08:31:15;;;;;;;4.82;2.00;;;;;;;4.02;100.00;94708.50;10391044;28;20060;-79
2021/12/30 08:36:15;;;;;;;4.13;2.30;;;;;;;4.06;100.00;94704.31;10390268;28;20037;-78
2021/12/30 08:41:17;;;;;;;3.67;2.03;;;;;;;4.13;100.00;94715.66;10407802;28;20472;-80
2021/12/30 08:46:18;;;;;;;5.20;1.65;;;;;;;3.91;100.00;94724.22;10407590;28;20062;-80
2021/12/30 08:51:18;;;;;;;2.95;1.95;;;;;;;4.04;100.00;94733.81;10390418;28;20485;-74
2021/12/30 08:56:19;;;;;;;4.55;2.63;;;;;;;4.07;100.00;94737.88;10389564;28;20041;-74
2021/12/30 09:01:19;;;;;;;2.58;1.70;;;;;;;4.04;100.00;94743.66;10364976;28;20080;-74
2021/12/30 09:06:20;;;;;;;6.13;1.85;;;;;;;4.16;100.00;94752.44;10348509;28;20446;-75
2021/12/30 09:11:20;;;;;;;4.47;2.10;;;;;;;4.17;100.00;94748.75;10348378;28;20098;-75
2021/12/30 09:16:20;;;;;;;2.10;1.70;;;;;;;4.30;100.00;94754.84;10347656;28;20037;-75
2021/12/30 09:21:21;;;;;;;4.65;2.28;;;;;;;4.33;100.00;94765.03;10365414;28;20053;-76
2021/12/30 09:26:21;;;;;;;6.00;2.72;;;;;;;4.42;100.00;94780.41;10331712;28;20034;-78
2021/12/30 09:31:22;;;;;;;8.43;3.22;;;;;;;4.36;100.00;94775.22;10347766;28;20034;-77
2021/12/30 09:36:23;;;;;;;4.18;2.40;;;;;;;4.41;100.00;94780.63;10364154;28;20034;-74
2021/12/30 09:41:24;;;;;;;7.03;3.38;;;;;;;4.41;100.00;94775.28;10347709;28;20025;-73
2021/12/30 09:46:24;;;;;;;7.03;3.05;;;;;;;4.28;100.00;94787.81;10364092;28;20025;-76
2021/12/30 09:51:25;;;;;;;6.15;3.92;;;;;;;4.21;100.00;94787.09;10363214;28;20415;-82
2021/12/30 09:56:25;;;;;;;3.78;2.70;;;;;;;4.23;100.00;94782.38;10363206;28;20488;-77
2021/12/30 10:01:26;;;;;;;6.60;1.80;;;;;;;4.15;100.00;94787.25;10362976;28;20033;-77
2021/12/30 10:06:26;;;;;;;2.60;2.30;;;;;;;4.13;100.00;94790.16;10346085;28;20104;-75
2021/12/30 10:11:27;;;;;;;6.05;2.25;;;;;;;4.09;100.00;94784.47;10361843;28;20161;-76
2021/12/30 10:16:28;;;;;;;3.30;2.17;;;;;;;4.12;100.00;94791.19;10361944;28;20557;-77
2021/12/30 10:21:35;;;;;;;3.38;2.72;;;;;;;4.31;100.00;94796.38;10345187;28;20049;-78
2021/12/30 10:26:56;;;;;;;5.93;2.35;;;;;;;4.13;100.00;94790.16;10344919;28;20385;-75
2021/12/30 10:31:56;;;;;;;4.57;2.95;;;;;;;4.26;100.00;94789.91;10361862;28;20112;-76
2021/12/30 10:36:57;;;;;;;7.63;3.05;;;;;;;4.17;100.00;94807.25;10361957;28;20495;-74
2021/12/30 10:42:06;;;;;;;4.00;2.42;;;;;;;4.19;100.00;94805.16;10361033;28;20030;-76
2021/12/30 10:47:07;;;;;;;7.15;3.85;;;;;;;4.40;100.00;94801.09;10343722;28;20025;-74
2021/12/30 10:52:07;;;;;;;6.20;3.25;;;;;;;4.50;100.00;94789.06;10344130;28;20026;-80
2021/12/30 10:57:10;;;;;;;5.20;3.22;;;;;;;4.63;100.00;94796.78;10344324;28;20476;-80
2021/12/30 11:02:17;;;;;;;8.20;3.38;;;;;;;4.69;100.00;94793.22;10360025;28;20071;-80
2021/12/30 11:07:21;;;;;;;5.35;3.05;;;;;;;4.93;100.00;94798.47;10361735;28;20049;-76
2021/12/30 11:12:25;;;;;;;7.72;4.63;;;;;;;5.08;100.00;94812.09;10343638;28;20157;-74
2021/12/30 11:17:34;;;;;;;11.07;4.72;;;;;;;5.25;100.00;94801.50;10360431;28;20496;-74
2021/12/30 11:22:35;;;;;;;4.57;3.10;;;;;;;5.38;100.00;94816.38;10342949;28;20038;-73
2021/12/30 11:27:36;;;;;;;12.52;4.57;;;;;;;5.41;100.00;94825.75;10343244;28;20116;-73
2021/12/30 11:32:37;;;;;;;5.78;3.92;;;;;;;5.25;100.00;94833.47;10358727;28;20028;-74
2021/12/30 11:37:37;;;;;;;6.43;3.22;;;;;;;5.41;100.00;94836.44;10359432;28;20025;-80
2021/12/30 11:42:44;;;;;;;17.33;4.20;;;;;;;5.27;100.00;94833.22;10359271;28;20033;-73
2021/12/30 11:47:45;;;;;;;7.45;4.35;;;;;;;5.27;100.00;94830.56;10359296;28;20025;-74
2021/12/30 11:52:52;;;;;;;5.57;3.30;;;;;;;5.34;100.00;94827.78;10360488;28;20395;-76
2021/12/30 11:57:52;;;;;;;8.25;4.07;;;;;;;5.43;100.00;94829.81;10358070;28;20044;-72
2021/12/30 12:02:53;;;;;;;8.57;3.10;;;;;;;5.34;100.00;94839.22;10358491;28;20503;-73
2021/12/30 12:08:08;;;;;;;5.65;3.10;;;;;;;5.60;100.00;94831.72;10342362;28;20136;-78
2021/12/30 12:13:31;;;;;;;6.88;2.67;;;;;;;5.67;100.00;94836.91;10360454;28;20026;-74
2021/12/30 12:18:33;;;;;;;4.10;2.92;;;;;;;5.62;100.00;94848.28;10341125;28;20401;-75
2021/12/30 12:23:41;;;;;;;4.60;2.45;;;;;;;5.50;100.00;94845.66;10358780;28;20026;-72
2021/12/30 12:28:42;;;;;;;3.97;2.30;;;;;;;5.41;100.00;94857.75;10358687;28;20044;-72
2021/12/30 12:33:43;;;;;;;3.17;2.35;;;;;;;5.46;100.00;94865.84;10357855;28;20384;-75
2021/12/30 12:38:50;;;;;;;5.55;3.40;;;;;;;5.52;100.00;94856.88;10341207;28;20026;-74
2021/12/30 12:43:55;;;;;;;7.40;2.53;;;;;;;5.62;100.00;94865.09;10358550;28;20014;-73
2021/12/30 12:48:55;;;;;;;4.78;3.40;;;;;;;5.71;100.00;94870.06;10357379;28;20108;-74
2021/12/30 12:54:05;;;;;;;6.43;4.72;;;;;;;5.80;100.00;94866.75;10341431;28;20036;-76
2021/12/30 12:59:13;;;;;;;6.38;3.00;;;;;;;5.86;100.00;94874.81;10357395;28;20511;-75
2021/12/30 13:04:13;;;;;;;3.75;2.20;;;;;;;5.95;100.00;94873.41;10357855;28;20025;-77
2021/12/30 13:09:17;;;;;;;4.60;2.63;;;;;;;5.92;100.00;94873.88;10340968;28;20083;-77
2021/12/30 13:14:27;;;;;;;7.20;4.57;;;;;;;5.97;100.00;94887.28;10364581;28;20083;-76
2021/12/30 13:19:30;;;;;;;11.77;2.25;;;;;;;5.83;100.00;94889.44;10363894;28;20100;-74
2021/12/30 13:24:54;;;;;;;3.42;2.13;;;;;;;5.25;100.00;94901.94;10364244;28;20022;-77
2021/12/30 13:30:05;;;;;;;5.43;2.55;;;;;;;5.20;100.00;94899.97;10363694;28;20434;-73
2021/12/30 13:35:12;;;;;;;6.70;3.40;;;;;;;5.44;100.00;94908.75;10363501;28;20029;-73
2021/12/30 13:40:18;;;;;;;3.65;3.00;;;;;;;5.59;100.00;94912.75;10346913;28;20077;-73
2021/12/30 13:45:25;;;;;;;8.35;3.85;;;;;;;5.65;100.00;94917.94;10346906;28;20551;-76
2021/12/30 13:50:25;;;;;;;7.25;2.70;;;;;;;5.71;100.00;94915.38;10345568;28;20033;-72
2021/12/30 13:55:37;;;;;;;25.60;5.00;;;;;;;5.68;100.00;94923.84;10344158;28;20029;-73
2021/12/30 14:00:43;;;;;;;8.55;3.95;;;;;;;5.69;100.00;94928.94;10364683;28;20018;-75
2021/12/30 14:05:45;;;;;;;5.40;2.58;;;;;;;5.61;100.00;94934.63;10362888;28;20033;-74
2021/12/30 14:11:06;;;;;;;14.65;3.83;;;;;;;5.55;100.00;94933.72;10345690;28;20419;-73
2021/12/30 14:16:19;;;;;;;4.85;2.42;;;;;;;5.28;100.00;94939.59;10363588;28;20029;-77
2021/12/30 14:21:23;;;;;;;5.05;2.70;;;;;;;5.03;100.00;94933.72;10361816;28;20057;-81
2021/12/30 14:26:31;;;;;;;8.98;3.22;;;;;;;5.28;100.00;94933.44;10362082;28;20080;-77
2021/12/30 14:31:38;;;;;;;4.10;2.90;;;;;;;5.29;100.00;94953.75;10385577;28;20426;-75
2021/12/30 14:37:01;;;;;;;7.93;3.50;;;;;;;5.33;100.00;94951.41;10385416;28;20045;-78
2021/12/30 14:42:07;;;;;;;4.40;2.85;;;;;;;5.25;100.00;94961.38;10384804;28;20037;-75
2021/12/30 14:47:12;;;;;;;5.57;2.97;;;;;;;5.20;100.00;94971.13;10403129;28;20111;-73
2021/12/30 14:52:16;;;;;;;10.95;4.00;;;;;;;5.16;100.00;94976.09;10367296;28;20032;-73
2021/12/30 14:57:20;;;;;;;10.55;3.78;;;;;;;5.15;100.00;94966.50;10384541;28;20396;-77
2021/12/30 15:02:24;;;;;;;5.55;3.78;;;;;;;5.23;100.00;94973.31;10384425;28;20025;-75
2021/12/30 15:07:25;;;;;;;4.88;3.13;;;;;;;5.19;100.00;94988.13;10384833;28;20025;-74
2021/12/30 15:12:25;;;;;;;8.38;4.00;;;;;;;5.15;100.00;94987.81;10402137;28;20466;-74
2021/12/30 15:17:26;;;;;;;8.98;4.28;;;;;;;5.17;100.00;95001.69;10384298;28;20104;-76
2021/12/30 15:22:26;;;;;;;6.43;4.15;;;;;;;5.22;100.00;94998.31;10384147;28;20045;-72
2021/12/30 15:27:27;;;;;;;9.10;4.97;;;;;;;5.18;100.00;95007.81;10367531;28;20030;-74
2021/12/30 15:32:27;;;;;;;5.47;3.65;;;;;;;5.19;100.00;95012.94;10382640;28;20121;-76
2021/12/30 15:37:28;;;;;;;12.63;4.25;;;;;;;5.21;100.00;95024.16;10380446;28;20037;-74
2021/12/30 15:42:28;;;;;;;13.38;7.03;;;;;;;5.27;100.00;95033.09;10382608;28;20060;-74
2021/12/30 15:47:29;;;;;;;10.82;4.40;;;;;;;5.19;100.00;95036.94;10365453;28;20040;-73
2021/12/30 15:52:29;;;;;;;10.18;5.10;;;;;;;5.14;100.00;95047.47;10382996;28;20041;-76
2021/12/30 15:57:30;;;;;;;15.35;6.13;;;;;;;5.11;100.00;95053.25;10366719;28;20044;-76
2021/12/30 16:02:30;;;;;;;9.40;4.68;;;;;;;5.12;100.00;95069.00;10382933;28;20126;-73
2021/12/30 16:07:31;;;;;;;8.40;4.18;;;;;;;5.01;100.00;95064.47;10370820;28;20026;-72
2021/12/30 16:12:32;;;;;;;16.83;6.05;;;;;;;5.10;100.00;95081.72;10358466;28;20099;-75
2021/12/30 16:17:32;;;;;;;10.38;5.32;;;;;;;5.22;100.00;95092.41;10364456;28;20040;-77
2021/12/30 16:22:34;;;;;;;10.40;5.22;;;;;;;5.28;100.00;95080.81;10388024;28;20104;-74
2021/12/30 16:27:34;;;;;;;10.48;5.65;;;;;;;5.02;100.00;95092.72;10342527;28;20521;-77
2021/12/30 16:32:35;;;;;;;15.10;5.90;;;;;;;5.26;100.00;95104.25;10357942;28;20124;-74
2021/12/30 16:37:36;;;;;;;8.63;4.88;;;;;;;5.21;100.00;95105.97;10357575;28;20064;-74
2021/12/30 16:42:38;;;;;;;10.65;5.13;;;;;;;5.10;100.00;95104.91;10342220;28;20114;-74
2021/12/30 16:47:40;;;;;;;7.72;5.10;;;;;;;5.21;100.00;95119.28;10352540;28;20029;-73
2021/12/30 16:52:41;;;;;;;10.30;5.85;;;;;;;5.29;100.00;95121.63;10349931;28;20034;-76
2021/12/30 16:57:42;;;;;;;10.00;5.53;;;;;;;5.23;100.00;95128.69;10382367;28;20621;-72
2021/12/30 17:02:43;;;;;;;7.43;4.32;;;;;;;5.26;100.00;95124.72;10364881;28;20119;-75
2021/12/30 17:07:45;;;;;;;13.50;5.78;;;;;;;5.23;100.00;95126.03;10374367;28;20035;-78
2021/12/30 17:12:46;;;;;;;12.60;5.53;;;;;;;5.16;100.00;95135.94;10389051;28;20087;-74
2021/12/30 17:17:48;;;;;;;13.48;6.85;;;;;;;5.00;100.00;95134.75;10386138;28;20064;-75
2021/12/30 17:22:50;;;;;;;11.68;5.35;;;;;;;4.99;100.00;95137.66;10386327;28;20029;-73
2021/12/30 17:27:53;;;;;;;12.15;5.65;;;;;;;5.08;100.00;95152.25;10387635;28;20388;-74
2021/12/30 17:32:55;;;;;;;12.63;7.60;;;;;;;4.96;100.00;95161.03;10386558;28;20034;-78
2021/12/30 17:37:55;;;;;;;11.10;6.40;;;;;;;5.00;100.00;95164.06;10385728;28;20033;-78
2021/12/30 17:42:56;;;;;;;8.70;5.90;;;;;;;5.01;100.00;95178.19;10361177;28;20034;-73
2021/12/30 17:47:57;;;;;;;22.48;9.27;;;;;;;4.94;100.00;95180.97;10345800;28;20029;-74
2021/12/30 17:53:01;;;;;;;18.25;8.05;;;;;;;4.95;100.00;95195.88;10346204;28;20042;-77
2021/12/30 17:58:06;;;;;;;21.17;10.25;;;;;;;4.78;100.00;95204.50;10345109;28;20571;-72
2021/12/30 18:03:07;;;;;;;16.17;9.13;;;;;;;4.73;100.00;95203.56;10363222;28;20029;-73
2021/12/30 18:08:09;;;;;;;23.65;12.55;;;;;;;4.82;100.00;95207.53;10385037;28;20026;-70
2021/12/30 18:13:09;;;;;;;25.80;12.35;;;;;;;4.53;100.00;95209.94;10351938;28;20045;-76
2021/12/30 18:18:10;;;;;;;28.38;13.98;;;;;;;4.17;100.00;95219.56;10337435;28;20516;-72
2021/12/30 18:23:11;;;;;;;26.83;12.07;;;;;;;4.02;100.00;95219.91;10345146;28;20021;-73
2021/12/30 18:28:12;;;;;;;21.42;11.70;;;;;;;3.99;100.00;95228.34;10360776;28;20087;-74
2021/12/30 18:33:13;;;;;;;28.10;13.18;;;;;;;3.87;100.00;95238.06;10361234;28;20067;-72
2021/12/30 18:38:16;;;;;;;20.10;11.02;;;;;;;3.88;100.00;95235.19;10360256;28;20033;-79
2021/12/30 18:43:17;;;;;;;20.77;12.40;;;;;;;3.94;100.00;95250.25;10368086;28;20637;-72
2021/12/30 18:48:18;;;;;;;22.58;11.95;;;;;;;4.02;100.00;95251.00;10352226;28;20243;-76
2021/12/30 18:53:21;;;;;;;16.25;10.90;;;;;;;3.88;100.00;95240.50;10392420;28;20037;-72
2021/12/30 18:58:22;;;;;;;19.83;9.70;;;;;;;3.73;100.00;95245.34;10389584;28;20026;-73
2021/12/30 19:03:24;;;;;;;18.88;10.82;;;;;;;3.73;100.00;95248.81;10370749;28;20045;-75
2021/12/30 19:08:24;;;;;;;21.08;9.68;;;;;;;3.63;100.00;95253.81;10383238;28;20036;-74
2021/12/30 19:13:26;;;;;;;15.32;10.63;;;;;;;3.62;100.00;95252.16;10383413;28;20046;-72
2021/12/30 19:18:26;;;;;;;17.00;10.55;;;;;;;3.70;100.00;95253.75;10348118;28;20049;-72
2021/12/30 19:23:27;;;;;;;18.65;9.68;;;;;;;3.63;100.00;95266.25;10342565;28;20034;-73
2021/12/30 19:28:27;;;;;;;13.63;8.38;;;;;;;3.77;100.00;95281.09;10363470;28;20038;-72
2021/12/30 19:33:28;;;;;;;12.23;7.88;;;;;;;3.73;100.00;95283.34;10359621;28;20037;-71
2021/12/30 19:38:31;;;;;;;15.05;8.20;;;;;;;3.83;100.00;95288.19;10356645;28;20033;-75
2021/12/30 19:43:33;;;;;;;13.13;9.10;;;;;;;3.84;100.00;95295.16;10367109;28;20112;-71
2021/12/30 19:48:35;;;;;;;12.13;8.40;;;;;;;3.77;100.00;95289.06;10400137;28;20025;-71
2021/12/30 19:53:35;;;;;;;14.13;7.75;;;;;;;3.69;100.00;95289.34;10358912;28;20033;-72
2021/12/30 19:58:36;;;;;;;13.23;8.45;;;;;;;3.53;100.00;95282.69;10357996;28;20047;-72
2021/12/30 20:03:37;;;;;;;12.73;7.80;;;;;;;3.45;100.00;95290.91;10380415;28;20032;-76
2021/12/30 20:08:37;;;;;;;13.88;9.13;;;;;;;3.43;100.00;95296.44;10382472;28;20513;-75
2021/12/30 20:13:39;;;;;;;12.55;9.25;;;;;;;3.49;100.00;95303.56;10341806;28;20095;-74
2021/12/30 20:18:41;;;;;;;12.68;7.55;;;;;;;3.64;100.00;95313.06;10404856;28;20053;-72
2021/12/30 20:23:43;;;;;;;13.93;7.80;;;;;;;3.64;100.00;95303.25;10390205;28;20452;-74
2021/12/30 20:28:44;;;;;;;14.80;8.52;;;;;;;3.62;100.00;95304.53;10389962;28;20096;-70
2021/12/30 20:33:45;;;;;;;14.02;8.40;;;;;;;3.52;100.00;95295.16;10389936;28;20030;-73
2021/12/30 20:38:46;;;;;;;14.13;8.57;;;;;;;3.48;100.00;95296.63;10405825;28;20112;-74
2021/12/30 20:43:50;;;;;;;12.02;7.20;;;;;;;3.50;100.00;95294.59;10388204;28;20033;-76
2021/12/30 20:48:50;;;;;;;13.02;7.78;;;;;;;3.61;100.00;95294.91;10386610;28;20033;-71
2021/12/30 20:53:52;;;;;;;15.50;7.57;;;;;;;3.73;100.00;95301.97;10364555;28;20030;-72
2021/12/30 20:58:55;;;;;;;18.25;8.30;;;;;;;3.97;100.00;95307.50;10368586;28;20108;-72
2021/12/30 21:03:57;;;;;;;15.68;8.20;;;;;;;4.18;100.00;95306.31;10364861;28;20032;-74
2021/12/30 21:08:58;;;;;;;13.07;7.72;;;;;;;4.36;100.00;95294.06;10362924;28;20096;-72
2021/12/30 21:13:58;;;;;;;13.98;7.45;;;;;;;4.39;100.00;95282.97;10347097;28;20045;-77
2021/12/30 21:19:00;;;;;;;15.48;8.15;;;;;;;4.35;100.00;95282.59;10382852;28;20110;-77
2021/12/30 21:24:01;;;;;;;13.77;7.90;;;;;;;4.47;100.00;95290.69;10354577;28;20026;-73
2021/12/30 21:29:02;;;;;;;16.95;8.75;;;;;;;4.64;100.00;95292.75;10362826;28;20509;-75
2021/12/30 21:34:03;;;;;;;13.88;8.15;;;;;;;4.56;100.00;95308.00;10360973;28;20029;-72
2021/12/30 21:39:05;;;;;;;17.00;10.25;;;;;;;4.69;100.00;95298.22;10362817;28;20633;-72
2021/12/30 21:44:06;;;;;;;17.10;7.80;;;;;;;4.65;100.00;95319.16;10362007;28;20480;-77
2021/12/30 21:49:06;;;;;;;12.38;7.95;;;;;;;4.75;100.00;95323.97;10359631;28;20038;-73
2021/12/30 21:54:07;;;;;;;16.30;8.50;;;;;;;4.71;100.00;95315.59;10345894;28;20029;-74
2021/12/30 21:59:07;;;;;;;20.70;9.60;;;;;;;4.56;100.00;95309.84;10362392;28;20029;-75
2021/12/30 22:04:08;;;;;;;18.85;9.80;;;;;;;4.15;100.00;95317.38;10362856;28;20175;-73
2021/12/30 22:09:08;;;;;;;16.92;10.15;;;;;;;3.91;100.00;95322.50;10363301;28;20488;-73
2021/12/30 22:14:10;;;;;;;18.40;9.98;;;;;;;3.91;100.00;95332.31;10362330;28;20030;-71
2021/12/30 22:19:10;;;;;;;13.07;8.63;;;;;;;3.88;100.00;95325.59;10366978;28;20046;-76
2021/12/30 22:24:11;;;;;;;17.05;8.65;;;;;;;3.91;100.00;95335.78;10386190;28;20033;-75
2021/12/30 22:29:12;;;;;;;15.25;8.07;;;;;;;3.87;100.00;95331.94;10385714;28;20038;-72
2021/12/30 22:34:13;;;;;;;20.33;8.55;;;;;;;3.98;100.00;95345.53;10383871;28;20500;-74
2021/12/30 22:39:13;;;;;;;14.23;9.18;;;;;;;3.94;100.00;95347.84;10362244;28;20471;-70
2021/12/30 22:44:14;;;;;;;17.63;9.10;;;;;;;3.75;100.00;95349.59;10361582;28;20048;-71
2021/12/30 22:49:15;;;;;;;13.82;7.88;;;;;;;3.70;100.00;95342.28;10343904;28;20049;-74
2021/12/30 22:54:15;;;;;;;15.32;8.07;;;;;;;3.70;100.00;95350.25;10344406;28;20033;-72
2021/12/30 22:59:16;;;;;;;14.80;8.80;;;;;;;3.89;100.00;95347.66;10359658;28;20427;-72
2021/12/30 23:04:17;;;;;;;14.75;8.73;;;;;;;3.94;100.00;95345.19;10377318;28;20072;-72
2021/12/30 23:09:18;;;;;;;15.70;8.98;;;;;;;3.74;100.00;95346.13;10384611;28;20030;-72
2021/12/30 23:14:18;;;;;;;16.17;9.27;;;;;;;3.75;100.00;95341.63;10384039;28;20042;-78
2021/12/30 23:19:19;;;;;;;17.35;10.05;;;;;;;3.69;100.00;95347.81;10382599;28;20068;-73
2021/12/30 23:24:20;;;;;;;16.05;8.77;;;;;;;3.80;100.00;95348.97;10383845;28;20029;-73